createdAt,value
2019-02-12T00:01:00.917Z,3.70
2019-02-12T00:03:30.333Z,3.75
2019-02-12T00:05:59.550Z,2.72
2019-02-12T00:08:28.721Z,4.30
2019-02-12T00:10:57.944Z,2.70
2019-02-12T00:13:28.969Z,4.30
2019-02-12T00:15:57.969Z,3.10
2019-02-12T00:18:27.165Z,3.30
2019-02-12T00:20:56.458Z,2.00
2019-02-12T00:23:25.705Z,4.12
2019-02-12T00:25:54.928Z,3.27
2019-02-12T00:28:24.053Z,3.42
2019-02-12T00:30:53.249Z,2.45
2019-02-12T00:33:22.481Z,2.83
2019-02-12T00:35:51.667Z,3.65
2019-02-12T00:38:20.848Z,2.75
2019-02-12T00:40:49.992Z,2.90
2019-02-12T00:43:19.198Z,3.27
2019-02-12T00:45:48.337Z,3.10
2019-02-12T00:48:17.539Z,2.65
2019-02-12T00:50:46.738Z,2.85
2019-02-12T00:53:15.968Z,2.47
2019-02-12T00:55:45.206Z,3.08
2019-02-12T00:58:14.399Z,2.87
2019-02-12T01:00:43.564Z,2.95
2019-02-12T01:03:12.733Z,2.20
2019-02-12T01:05:41.912Z,2.52
2019-02-12T01:08:11.089Z,2.77
2019-02-12T01:10:40.329Z,3.27
2019-02-12T01:13:09.477Z,2.65
2019-02-12T01:15:38.687Z,2.87
2019-02-12T01:18:07.842Z,2.47
2019-02-12T01:20:37.050Z,2.60
2019-02-12T01:23:06.216Z,2.50
2019-02-12T01:25:35.380Z,2.17
2019-02-12T01:28:04.670Z,2.27
2019-02-12T01:30:33.879Z,2.30
2019-02-12T01:33:03.081Z,3.22
2019-02-12T01:35:32.329Z,2.85
2019-02-12T01:38:01.506Z,2.72
2019-02-12T01:40:30.609Z,2.83
2019-02-12T01:42:59.714Z,1.95
2019-02-12T01:45:28.836Z,3.50
2019-02-12T01:47:57.933Z,2.58
2019-02-12T01:50:27.020Z,2.05
2019-02-12T01:52:56.244Z,2.30
2019-02-12T01:55:25.405Z,1.90
2019-02-12T01:57:54.521Z,4.05
2019-02-12T02:00:23.705Z,2.77
2019-02-12T02:02:52.809Z,2.95
2019-02-12T02:05:21.984Z,3.10
2019-02-12T02:07:51.211Z,2.50
2019-02-12T02:10:20.431Z,2.25
2019-02-12T02:12:49.664Z,2.95
2019-02-12T02:15:18.895Z,2.77
2019-02-12T02:17:48.070Z,2.98
2019-02-12T02:20:17.275Z,2.95
2019-02-12T02:22:46.525Z,3.70
2019-02-12T02:25:15.777Z,2.60
2019-02-12T02:27:44.893Z,3.50
2019-02-12T02:30:15.032Z,3.10
2019-02-12T02:32:44.372Z,2.90
2019-02-12T02:35:13.549Z,2.58
2019-02-12T02:37:42.786Z,2.65
2019-02-12T02:40:12.142Z,2.20
2019-02-12T02:42:41.390Z,2.65
2019-02-12T02:45:11.440Z,2.85
2019-02-12T02:47:40.588Z,2.17
2019-02-12T02:50:09.935Z,2.85
2019-02-12T02:52:39.152Z,3.08
2019-02-12T02:55:08.642Z,2.85
2019-02-12T02:57:37.880Z,2.70
2019-02-12T03:00:08.178Z,2.17
2019-02-12T03:02:37.501Z,2.95
2019-02-12T03:05:08.302Z,2.95
2019-02-12T03:07:37.526Z,2.33
2019-02-12T03:10:07.102Z,2.95
2019-02-12T03:12:36.354Z,2.65
2019-02-12T03:15:06.327Z,2.10
2019-02-12T03:17:35.486Z,2.12
2019-02-12T03:20:04.927Z,3.00
2019-02-12T03:22:34.169Z,2.60
2019-02-12T03:25:03.348Z,2.70
2019-02-12T03:27:32.502Z,2.70
2019-02-12T03:30:01.671Z,2.30
2019-02-12T03:32:31.021Z,3.08
2019-02-12T03:35:00.339Z,2.85
2019-02-12T03:37:29.555Z,3.05
2019-02-12T03:39:58.795Z,2.50
2019-02-12T03:42:28.116Z,2.08
2019-02-12T03:44:57.404Z,1.65
2019-02-12T03:47:26.590Z,2.00
2019-02-12T03:49:55.835Z,3.08
2019-02-12T03:52:25.085Z,2.40
2019-02-12T03:54:54.311Z,2.30
2019-02-12T03:57:23.633Z,2.45
2019-02-12T03:59:52.939Z,3.47
2019-02-12T04:02:22.230Z,2.35
2019-02-12T04:04:51.829Z,2.25
2019-02-12T04:07:21.059Z,3.00
2019-02-12T04:09:50.344Z,4.28
2019-02-12T04:12:19.548Z,2.12
2019-02-12T04:14:48.686Z,2.33
2019-02-12T04:17:17.902Z,2.70
2019-02-12T04:19:47.087Z,4.45
2019-02-12T04:22:22.210Z,4.00
2019-02-12T04:24:47.168Z,3.35
2019-02-12T04:27:16.440Z,2.87
2019-02-12T04:29:45.678Z,2.42
2019-02-12T04:32:14.936Z,2.30
2019-02-12T04:34:44.217Z,3.08
2019-02-12T04:37:13.462Z,3.60
2019-02-12T04:39:42.676Z,2.40
2019-02-12T04:42:11.952Z,2.33
2019-02-12T04:44:41.241Z,2.33
2019-02-12T04:47:10.554Z,2.65
2019-02-12T04:49:39.789Z,2.52
2019-02-12T04:52:09.127Z,3.00
2019-02-12T04:54:38.273Z,2.22
2019-02-12T04:57:07.485Z,2.87
2019-02-12T04:59:36.674Z,3.40
2019-02-12T05:02:06.050Z,2.80
2019-02-12T05:04:35.263Z,2.20
2019-02-12T05:07:04.545Z,2.33
2019-02-12T05:09:35.581Z,2.35
2019-02-12T05:12:06.344Z,2.27
2019-02-12T05:14:35.568Z,2.30
2019-02-12T05:17:04.895Z,2.92
2019-02-12T05:19:34.126Z,2.87
2019-02-12T05:22:03.355Z,2.42
2019-02-12T05:24:32.548Z,2.05
2019-02-12T05:27:03.280Z,1.95
2019-02-12T05:29:32.384Z,1.70
2019-02-12T05:32:01.528Z,2.45
2019-02-12T05:34:30.711Z,2.55
2019-02-12T05:36:59.875Z,2.37
2019-02-12T05:39:28.964Z,1.50
2019-02-12T05:41:58.124Z,3.17
2019-02-12T05:44:27.237Z,2.72
2019-02-12T05:46:56.380Z,1.52
2019-02-12T05:49:25.468Z,1.85
2019-02-12T05:51:54.576Z,2.60
2019-02-12T05:54:23.724Z,3.40
2019-02-12T05:56:52.945Z,1.70
2019-02-12T05:59:22.010Z,1.70
2019-02-12T06:01:51.096Z,2.47
2019-02-12T06:04:20.185Z,1.80
2019-02-12T06:06:49.448Z,1.50
2019-02-12T06:09:18.750Z,1.70
2019-02-12T06:11:49.242Z,1.77
2019-02-12T06:14:18.445Z,1.67
2019-02-12T06:16:50.977Z,2.33
2019-02-12T06:19:23.057Z,1.92
2019-02-12T06:21:54.627Z,2.05
2019-02-12T06:24:23.744Z,2.30
2019-02-12T06:26:52.940Z,1.85
2019-02-12T06:29:23.497Z,2.20
2019-02-12T06:31:52.670Z,2.00
2019-02-12T06:34:21.782Z,2.27
2019-02-12T06:36:50.966Z,2.72
2019-02-12T06:39:20.061Z,1.67
2019-02-12T06:41:49.265Z,2.22
2019-02-12T06:44:18.552Z,1.77
2019-02-12T06:46:47.786Z,2.20
2019-02-12T06:49:17.054Z,1.77
2019-02-12T06:51:46.264Z,3.10
2019-02-12T06:54:15.452Z,1.92
2019-02-12T06:56:44.640Z,2.08
2019-02-12T06:59:13.732Z,1.70
2019-02-12T07:01:42.926Z,2.27
2019-02-12T07:04:15.555Z,1.82
2019-02-12T07:07:34.732Z,1.92
2019-02-12T07:10:09.264Z,2.22
2019-02-12T07:13:15.535Z,2.08
2019-02-12T07:16:14.142Z,2.10
2019-02-12T07:19:07.589Z,2.05
2019-02-12T07:22:05.569Z,2.33
2019-02-12T07:25:17.887Z,2.40
2019-02-12T07:28:12.744Z,2.12
2019-02-12T07:31:21.483Z,1.80
2019-02-12T07:34:50.305Z,1.85
2019-02-12T07:37:57.469Z,1.87
2019-02-12T07:40:32.396Z,2.40
2019-02-12T07:43:42.074Z,2.15
2019-02-12T07:46:48.625Z,1.45
2019-02-12T07:49:45.721Z,2.98
2019-02-12T07:52:53.384Z,1.85
2019-02-12T07:55:46.795Z,1.87
2019-02-12T07:58:33.949Z,1.62
2019-02-12T08:01:08.684Z,2.92
2019-02-12T08:04:15.155Z,2.50
2019-02-12T08:07:18.156Z,1.80
2019-02-12T08:10:10.292Z,2.60
2019-02-12T08:13:33.362Z,2.12
2019-02-12T08:16:17.893Z,2.20
2019-02-12T08:19:05.673Z,2.52
2019-02-12T08:22:06.708Z,1.77
2019-02-12T08:24:46.458Z,2.35
2019-02-12T08:27:59.921Z,2.40
2019-02-12T08:31:13.038Z,2.40
2019-02-12T08:33:56.643Z,4.22
2019-02-12T08:36:47.982Z,1.65
2019-02-12T08:39:45.356Z,2.45
2019-02-12T08:42:47.501Z,2.80
2019-02-12T08:45:47.710Z,3.17
2019-02-12T08:48:51.860Z,2.52
2019-02-12T08:51:54.338Z,3.92
2019-02-12T08:54:45.701Z,2.90
2019-02-12T08:57:25.365Z,2.22
2019-02-12T09:00:47.579Z,2.75
2019-02-12T09:03:53.088Z,2.60
2019-02-12T09:06:44.309Z,3.30
2019-02-12T09:10:00.116Z,2.87
2019-02-12T09:12:40.862Z,3.47
2019-02-12T09:15:43.228Z,3.75
2019-02-12T09:18:29.885Z,3.10
2019-02-12T09:21:16.137Z,4.40
2019-02-12T09:24:07.046Z,3.20
2019-02-12T09:27:14.742Z,3.70
2019-02-12T09:30:23.639Z,3.50
2019-02-12T09:33:28.541Z,3.15
2019-02-12T09:36:48.823Z,3.27
2019-02-12T09:39:35.767Z,5.90
2019-02-12T09:42:30.239Z,3.60
2019-02-12T09:45:35.406Z,4.20
2019-02-12T09:48:30.668Z,3.62
2019-02-12T09:51:07.619Z,4.40
2019-02-12T09:53:59.263Z,3.55
2019-02-12T09:56:54.083Z,3.05
2019-02-12T09:59:48.598Z,3.80
2019-02-12T10:02:49.371Z,4.10
2019-02-12T10:05:57.879Z,3.10
2019-02-12T10:09:26.454Z,3.12
2019-02-12T10:12:50.962Z,3.17
2019-02-12T10:15:48.170Z,3.00
2019-02-12T10:18:51.884Z,3.22
2019-02-12T10:22:08.397Z,2.70
2019-02-12T10:25:08.533Z,3.12
2019-02-12T10:28:25.029Z,3.50
2019-02-12T10:31:17.685Z,4.25
2019-02-12T10:33:46.819Z,3.90
2019-02-12T10:36:16.003Z,3.37
2019-02-12T10:38:45.257Z,3.62
2019-02-12T10:41:16.810Z,3.77
2019-02-12T10:43:45.994Z,3.08
2019-02-12T10:46:15.242Z,3.95
2019-02-12T10:48:44.477Z,3.80
2019-02-12T10:51:13.705Z,3.92
2019-02-12T10:53:42.932Z,3.40
2019-02-12T10:56:12.113Z,3.40
2019-02-12T10:58:41.305Z,3.15
2019-02-12T11:01:10.568Z,4.10
2019-02-12T11:03:39.751Z,3.87
2019-02-12T11:06:09.005Z,3.30
2019-02-12T11:08:38.174Z,3.27
2019-02-12T11:11:07.420Z,3.90
2019-02-12T11:13:36.541Z,4.20
2019-02-12T11:16:06.820Z,4.25
2019-02-12T11:18:36.215Z,4.50
2019-02-12T11:21:11.762Z,4.40
2019-02-12T11:23:36.777Z,4.65
2019-02-12T11:26:05.964Z,4.53
2019-02-12T11:28:35.104Z,4.37
2019-02-12T11:31:04.399Z,3.92
2019-02-12T11:33:34.683Z,4.20
2019-02-12T11:36:04.945Z,3.45
2019-02-12T11:38:34.055Z,4.05
2019-02-12T11:41:03.222Z,4.37
2019-02-12T11:43:32.316Z,3.83
2019-02-12T11:46:01.490Z,3.12
2019-02-12T11:48:30.576Z,3.25
2019-02-12T11:50:59.769Z,2.25
2019-02-12T11:53:29.030Z,3.50
2019-02-12T11:55:58.135Z,2.80
2019-02-12T11:58:30.898Z,5.10
2019-02-12T12:01:01.943Z,2.62
2019-02-12T12:03:31.082Z,1.87
2019-02-12T12:06:00.247Z,2.62
2019-02-12T12:08:29.339Z,2.17
2019-02-12T12:10:58.423Z,3.10
2019-02-12T12:13:27.600Z,2.20
2019-02-12T12:15:56.672Z,2.90
2019-02-12T12:18:25.803Z,2.75
2019-02-12T12:20:54.906Z,2.30
2019-02-12T12:23:24.108Z,2.95
2019-02-12T12:25:53.229Z,3.10
2019-02-12T12:28:22.401Z,3.42
2019-02-12T12:30:53.811Z,3.62
2019-02-12T12:33:22.993Z,3.47
2019-02-12T12:35:52.119Z,4.20
2019-02-12T12:38:21.221Z,3.60
2019-02-12T12:40:50.338Z,3.15
2019-02-12T12:43:19.465Z,2.60
2019-02-12T12:45:48.584Z,3.05
2019-02-12T12:48:17.689Z,2.92
2019-02-12T12:50:46.787Z,2.75
2019-02-12T12:53:15.956Z,2.67
2019-02-12T12:55:45.092Z,2.87
2019-02-12T12:58:14.262Z,4.70
2019-02-12T13:00:43.360Z,2.90
2019-02-12T13:03:13.500Z,3.22
2019-02-12T13:05:42.729Z,2.83
2019-02-12T13:08:11.917Z,3.70
2019-02-12T13:10:41.040Z,2.83
2019-02-12T13:13:10.179Z,3.33
2019-02-12T13:15:39.406Z,2.72
2019-02-12T13:18:08.635Z,2.77
2019-02-12T13:20:37.817Z,3.10
2019-02-12T13:23:07.013Z,2.75
2019-02-12T13:25:36.218Z,2.58
2019-02-12T13:28:05.292Z,2.72
2019-02-12T13:30:34.526Z,3.22
2019-02-12T13:33:03.626Z,3.30
2019-02-12T13:35:32.755Z,3.10
2019-02-12T13:38:01.958Z,3.35
2019-02-12T13:40:31.198Z,3.60
2019-02-12T13:43:00.369Z,2.72
2019-02-12T13:45:29.483Z,3.42
2019-02-12T13:47:58.676Z,3.45
2019-02-12T13:50:27.798Z,3.20
2019-02-12T13:52:56.953Z,3.75
2019-02-12T13:55:26.862Z,3.42
2019-02-12T13:57:55.956Z,3.40
2019-02-12T14:00:25.087Z,4.00
2019-02-12T14:02:54.294Z,3.40
2019-02-12T14:05:23.539Z,4.20
2019-02-12T14:07:52.754Z,3.50
2019-02-12T14:10:21.932Z,5.10
2019-02-12T14:12:51.137Z,4.05
2019-02-12T14:15:20.336Z,3.37
2019-02-12T14:17:51.038Z,3.25
2019-02-12T14:20:20.230Z,3.60
2019-02-12T14:22:49.354Z,3.00
2019-02-12T14:25:25.401Z,3.10
2019-02-12T14:27:49.430Z,3.33
2019-02-12T14:30:21.041Z,5.30
2019-02-12T14:32:50.491Z,3.42
2019-02-12T14:35:19.620Z,3.35
2019-02-12T14:37:48.775Z,3.62
2019-02-12T14:40:17.937Z,3.40
2019-02-12T14:42:48.073Z,3.22
2019-02-12T14:45:17.270Z,2.95
2019-02-12T14:47:46.445Z,2.47
2019-02-12T14:50:15.824Z,2.90
2019-02-12T14:52:44.913Z,2.80
2019-02-12T14:55:14.181Z,3.37
2019-02-12T14:57:43.437Z,2.55
2019-02-12T15:00:14.025Z,4.35
2019-02-12T15:02:43.198Z,2.55
2019-02-12T15:05:12.842Z,3.02
2019-02-12T15:07:41.960Z,3.83
2019-02-12T15:10:11.709Z,2.35
2019-02-12T15:12:40.897Z,3.10
2019-02-12T15:15:10.273Z,2.90
2019-02-12T15:17:39.446Z,3.10
2019-02-12T15:20:09.075Z,3.27
2019-02-12T15:22:38.354Z,3.05
2019-02-12T15:25:07.769Z,3.33
2019-02-12T15:27:37.056Z,2.22
2019-02-12T15:30:08.285Z,3.40
2019-02-12T15:32:37.562Z,2.95
2019-02-12T15:35:08.285Z,3.20
2019-02-12T15:37:37.494Z,3.30
2019-02-12T15:40:09.666Z,3.40
2019-02-12T15:42:38.864Z,4.00
2019-02-12T15:45:10.723Z,3.10
2019-02-12T15:47:39.893Z,2.95
2019-02-12T15:50:09.739Z,3.52
2019-02-12T15:52:38.949Z,3.40
2019-02-12T15:55:09.978Z,3.67
2019-02-12T15:57:40.524Z,4.22
2019-02-12T16:00:12.833Z,3.37
2019-02-12T16:02:42.009Z,3.08
2019-02-12T16:05:12.451Z,3.67
2019-02-12T16:07:42.618Z,2.87
2019-02-12T16:10:14.831Z,3.02
2019-02-12T16:12:46.540Z,2.50
2019-02-12T16:15:16.772Z,3.75
2019-02-12T16:17:46.075Z,3.45
2019-02-12T16:20:15.266Z,7.33
2019-02-12T16:22:44.462Z,4.33
2019-02-12T16:25:15.371Z,4.28
2019-02-12T16:27:44.591Z,3.30
2019-02-12T16:30:15.666Z,2.85
2019-02-12T16:32:44.998Z,2.80
2019-02-12T16:35:15.366Z,3.45
2019-02-12T16:37:44.590Z,4.42
2019-02-12T16:40:14.059Z,3.15
2019-02-12T16:42:44.071Z,2.80
2019-02-12T16:45:16.173Z,3.00
2019-02-12T16:47:45.602Z,2.67
2019-02-12T16:50:14.853Z,4.08
2019-02-12T16:52:44.146Z,3.12
2019-02-12T16:55:13.453Z,3.37
2019-02-12T16:57:42.628Z,2.90
2019-02-12T17:00:14.134Z,3.30
2019-02-12T17:02:43.365Z,3.30
2019-02-12T17:05:13.288Z,2.77
2019-02-12T17:07:43.481Z,3.58
2019-02-12T17:10:12.816Z,4.30
2019-02-12T17:12:41.989Z,2.98
2019-02-12T17:15:11.388Z,3.50
2019-02-12T17:17:40.619Z,3.75
2019-02-12T17:20:12.827Z,4.05
2019-02-12T17:22:42.115Z,3.15
2019-02-12T17:25:11.395Z,4.60
2019-02-12T17:27:40.637Z,4.95
2019-02-12T17:30:11.788Z,3.92
2019-02-12T17:32:40.895Z,3.62
2019-02-12T17:35:10.282Z,4.55
2019-02-12T17:37:39.623Z,3.50
2019-02-12T17:40:10.144Z,3.47
2019-02-12T17:42:39.305Z,3.65
2019-02-12T17:45:10.469Z,2.95
2019-02-12T17:47:39.700Z,3.20
2019-02-12T17:50:09.652Z,3.50
2019-02-12T17:52:38.820Z,3.22
2019-02-12T17:55:08.430Z,4.00
2019-02-12T17:58:00.616Z,3.72
2019-02-12T18:00:24.079Z,3.30
2019-02-12T18:02:54.121Z,3.50
2019-02-12T18:05:23.543Z,3.80
2019-02-12T18:07:56.635Z,3.90
2019-02-12T18:10:25.803Z,3.55
2019-02-12T18:12:55.024Z,3.98
2019-02-12T18:15:24.195Z,3.25
2019-02-12T18:17:53.419Z,3.60
2019-02-12T18:20:26.493Z,3.33
2019-02-12T18:22:53.630Z,3.60
2019-02-12T18:25:22.869Z,3.80
2019-02-12T18:27:52.052Z,4.08
2019-02-12T18:30:21.212Z,3.72
2019-02-12T18:32:58.181Z,3.27
2019-02-12T18:35:29.327Z,2.90
2019-02-12T18:59:08.516Z,3.15
2019-02-12T19:01:45.356Z,4.58
2019-02-12T19:04:18.014Z,3.45
2019-02-12T19:07:29.282Z,4.20
2019-02-12T19:36:34.397Z,3.00
2019-02-12T19:39:01.763Z,3.70
2019-02-12T19:41:31.612Z,3.27
2019-02-12T19:44:01.563Z,3.37
2019-02-12T19:46:33.271Z,4.17
2019-02-12T19:49:02.466Z,2.92
2019-02-12T19:51:33.939Z,3.30
2019-02-12T19:54:04.176Z,3.33
2019-02-12T19:56:33.416Z,3.60
2019-02-12T19:59:03.650Z,3.27
2019-02-12T20:01:32.834Z,3.90
2019-02-12T20:04:02.185Z,3.85
2019-02-12T20:06:31.337Z,4.10
2019-02-12T20:09:00.519Z,4.40
2019-02-12T20:11:29.692Z,3.62
2019-02-12T20:13:58.785Z,4.10
2019-02-12T20:16:27.894Z,3.15
2019-02-12T20:18:57.007Z,3.95
2019-02-12T20:22:39.041Z,3.95
2019-02-12T20:25:11.477Z,3.77
2019-02-12T20:27:40.220Z,3.60
2019-02-12T20:30:12.025Z,4.45
2019-02-12T20:32:42.053Z,3.87
2019-02-12T20:35:13.356Z,3.60
2019-02-12T20:37:42.717Z,3.80
2019-02-12T20:40:13.518Z,3.77
2019-02-12T20:42:44.309Z,4.12
2019-02-12T20:45:14.540Z,4.40
2019-02-12T20:47:43.770Z,4.15
2019-02-12T20:50:13.549Z,5.03
2019-02-12T20:52:42.689Z,4.50
2019-02-12T20:55:12.065Z,3.45
2019-02-12T20:57:41.322Z,4.03
2019-02-12T21:00:16.436Z,4.25
2019-02-12T21:02:45.667Z,3.80
2019-02-12T21:05:16.485Z,3.62
2019-02-12T21:07:49.137Z,3.52
2019-02-12T21:10:21.062Z,3.90
2019-02-12T21:12:50.445Z,4.25
2019-02-12T21:15:20.332Z,4.47
2019-02-12T21:17:49.751Z,2.90
2019-02-12T21:20:19.072Z,5.00
2019-02-12T21:22:48.354Z,4.58
2019-02-12T21:25:17.820Z,3.90
2019-02-12T21:27:47.030Z,4.22
2019-02-12T21:30:18.906Z,3.72
2019-02-12T21:32:48.527Z,4.55
2019-02-12T21:35:18.797Z,5.95
2019-02-12T21:37:48.112Z,4.45
2019-02-12T21:40:20.094Z,3.52
2019-02-12T21:42:51.015Z,4.12
2019-02-12T21:48:34.607Z,4.70
2019-02-12T21:51:04.922Z,4.20
2019-02-12T22:01:41.321Z,4.72
2019-02-12T22:07:51.180Z,4.55
2019-02-12T22:20:37.850Z,4.15
2019-02-12T22:23:08.426Z,4.00
2019-02-12T22:25:37.636Z,4.65
2019-02-12T22:28:06.865Z,4.70
2019-02-12T22:30:36.133Z,5.00
2019-02-12T22:33:05.476Z,3.70
2019-02-12T22:35:35.645Z,4.72
2019-02-12T22:38:05.457Z,4.85
2019-02-12T22:40:34.633Z,4.50
2019-02-12T22:43:03.850Z,5.33
2019-02-12T22:45:35.001Z,4.62
2019-02-12T22:48:05.642Z,3.98
2019-02-12T22:50:34.879Z,3.30
2019-02-12T22:53:04.303Z,4.55
2019-02-12T22:55:34.710Z,4.17
2019-02-12T22:58:04.933Z,4.25
2019-02-12T23:01:05.451Z,4.12
2019-02-12T23:03:35.834Z,4.33
2019-02-12T23:06:05.227Z,4.35
2019-02-12T23:08:34.573Z,4.17
2019-02-12T23:11:07.411Z,3.85
2019-02-12T23:13:37.289Z,4.08
2019-02-12T23:16:06.612Z,3.87
2019-02-12T23:18:35.829Z,4.35
2019-02-12T23:21:05.243Z,4.75
2019-02-12T23:23:34.464Z,5.50
2019-02-12T23:26:03.833Z,4.70
2019-02-12T23:28:36.059Z,4.37
2019-02-12T23:31:05.305Z,4.50
2019-02-12T23:33:34.480Z,5.00
2019-02-12T23:36:03.700Z,5.47
2019-02-12T23:38:32.919Z,5.87
2019-02-12T23:41:02.125Z,5.53
2019-02-12T23:43:31.599Z,6.03
2019-02-12T23:46:00.815Z,6.28
2019-02-12T23:48:30.051Z,5.65
2019-02-12T23:50:59.256Z,7.40
2019-02-12T23:53:28.446Z,7.42
2019-02-12T23:55:57.654Z,6.30
2019-02-12T23:58:26.940Z,7.00
